createdAt,value
2022-11-27T00:00:43.433Z,102284.34
2022-11-27T00:03:10.036Z,102281.63
2022-11-27T00:05:36.486Z,102278.13
2022-11-27T00:08:02.840Z,102275.41
2022-11-27T00:10:29.169Z,102269.50
2022-11-27T00:12:55.508Z,102266.25
2022-11-27T00:15:22.506Z,102260.75
2022-11-27T00:17:48.846Z,102250.88
2022-11-27T00:20:15.376Z,102255.06
2022-11-27T00:22:41.712Z,102253.97
2022-11-27T00:25:08.366Z,102258.31
2022-11-27T00:27:34.708Z,102256.56
2022-11-27T00:30:01.078Z,102243.44
2022-11-27T00:32:27.442Z,102245.03
2022-11-27T00:34:54.107Z,102253.09
2022-11-27T00:37:20.427Z,102249.75
2022-11-27T00:39:47.523Z,102254.19
2022-11-27T00:42:13.908Z,102264.00
2022-11-27T00:44:40.481Z,102259.63
2022-11-27T00:47:07.077Z,102256.09
2022-11-27T00:49:33.477Z,102258.84
2022-11-27T00:51:59.818Z,102250.97
2022-11-27T00:54:26.152Z,102252.72
2022-11-27T00:56:52.496Z,102253.66
2022-11-27T00:59:18.834Z,102258.00
2022-11-27T01:01:46.287Z,102252.72
2022-11-27T01:04:14.989Z,102255.47
2022-11-27T01:06:42.313Z,102244.66
2022-11-27T01:09:10.927Z,102248.34
2022-11-27T01:11:37.366Z,102264.06
2022-11-27T01:14:09.047Z,102257.94
2022-11-27T01:16:38.550Z,102256.19
2022-11-27T01:19:07.714Z,102251.72
2022-11-27T01:21:34.836Z,102248.31
2022-11-27T01:24:02.526Z,102242.41
2022-11-27T01:26:29.227Z,102226.75
2022-11-27T01:28:56.836Z,102218.16
2022-11-27T01:31:26.218Z,102205.84
2022-11-27T01:33:58.729Z,102226.31
2022-11-27T01:36:25.911Z,102226.44
2022-11-27T01:38:52.427Z,102220.28
2022-11-27T01:41:18.805Z,102218.47
2022-11-27T01:43:48.277Z,102216.78
2022-11-27T01:46:39.236Z,102215.00
2022-11-27T01:49:08.360Z,102212.34
2022-11-27T01:51:41.253Z,102214.22
2022-11-27T01:54:09.734Z,102215.09
2022-11-27T01:56:36.928Z,102216.03
2022-11-27T02:03:16.179Z,102209.09
2022-11-27T02:05:42.734Z,102204.63
2022-11-27T02:08:12.088Z,102209.88
2022-11-27T02:10:49.455Z,102197.44
2022-11-27T02:13:33.577Z,102194.13
2022-11-27T02:16:29.651Z,102187.19
2022-11-27T02:19:13.302Z,102178.59
2022-11-27T02:21:54.529Z,102182.97
2022-11-27T02:24:48.310Z,102177.69
2022-11-27T02:27:36.501Z,102179.47
2022-11-27T02:30:05.343Z,102181.34
2022-11-27T02:32:40.134Z,102186.84
2022-11-27T02:35:32.032Z,102184.22
2022-11-27T02:38:10.443Z,102175.31
2022-11-27T02:40:52.822Z,102173.59
2022-11-27T02:43:24.978Z,102162.25
2022-11-27T02:45:52.329Z,102166.84
2022-11-27T02:48:22.648Z,102151.13
2022-11-27T02:50:51.350Z,102144.22
2022-11-27T02:53:30.894Z,102142.63
2022-11-27T02:55:59.315Z,102144.59
2022-11-27T02:58:29.053Z,102142.09
2022-11-27T03:00:57.170Z,102135.00
2022-11-27T03:03:29.504Z,102132.47
2022-11-27T03:06:01.299Z,102130.00
2022-11-27T03:08:41.300Z,102126.63
2022-11-27T03:11:10.328Z,102120.50
2022-11-27T03:13:39.331Z,102117.00
2022-11-27T03:16:37.509Z,102113.63
2022-11-27T03:19:22.006Z,102103.13
2022-11-27T03:21:58.204Z,102098.00
2022-11-27T03:24:25.061Z,102095.28
2022-11-27T03:26:51.903Z,102089.97
2022-11-27T03:29:35.959Z,102092.50
2022-11-27T03:32:02.969Z,102099.56
2022-11-27T03:34:29.558Z,102103.84
2022-11-27T03:36:56.010Z,102099.28
2022-11-27T03:39:23.526Z,102103.56
2022-11-27T03:42:22.257Z,102105.03
2022-11-27T03:45:19.247Z,102105.94
2022-11-27T03:47:57.347Z,102120.06
2022-11-27T03:50:29.555Z,102112.09
2022-11-27T03:53:17.751Z,102111.25
2022-11-27T03:55:53.447Z,102107.00
2022-11-27T03:58:37.847Z,102112.28
2022-11-27T04:01:09.762Z,102102.72
2022-11-27T04:03:36.536Z,102097.41
2022-11-27T04:06:03.430Z,102090.34
2022-11-27T04:08:29.904Z,102081.47
2022-11-27T04:10:56.339Z,102061.28
2022-11-27T04:13:22.692Z,102064.69
2022-11-27T04:15:49.172Z,102064.63
2022-11-27T04:18:15.517Z,102067.28
2022-11-27T04:20:41.846Z,102059.31
2022-11-27T04:23:08.268Z,102051.28
2022-11-27T04:25:34.658Z,102045.91
2022-11-27T04:28:01.132Z,102041.53
2022-11-27T04:30:27.474Z,102036.16
2022-11-27T04:32:53.914Z,102037.69
2022-11-27T04:35:20.273Z,102035.09
2022-11-27T04:37:46.599Z,102035.84
2022-11-27T04:40:13.287Z,102035.69
2022-11-27T04:42:39.666Z,102036.44
2022-11-27T04:45:06.557Z,102024.88
2022-11-27T04:47:32.905Z,102019.50
2022-11-27T04:49:59.229Z,102010.84
2022-11-27T04:52:25.547Z,102016.81
2022-11-27T04:54:55.451Z,102016.81
2022-11-27T04:57:26.167Z,102014.16
2022-11-27T04:59:52.545Z,101999.84
2022-11-27T05:02:18.940Z,101992.84
2022-11-27T05:04:45.302Z,101991.97
2022-11-27T05:07:11.682Z,101989.25
2022-11-27T05:09:38.087Z,101986.47
2022-11-27T05:12:04.699Z,101988.06
2022-11-27T05:14:31.072Z,101984.47
2022-11-27T05:16:58.657Z,101981.53
2022-11-27T05:19:27.949Z,101993.72
2022-11-27T05:21:54.910Z,101986.56
2022-11-27T05:24:24.201Z,101985.53
2022-11-27T05:26:50.938Z,101982.84
2022-11-27T05:29:18.072Z,101973.03
2022-11-27T05:31:44.684Z,101977.47
2022-11-27T05:34:11.458Z,101969.38
2022-11-27T05:36:38.303Z,101970.19
2022-11-27T05:39:06.838Z,101974.41
2022-11-27T05:41:34.401Z,101974.97
2022-11-27T05:44:00.748Z,101970.59
2022-11-27T05:46:27.224Z,101970.50
2022-11-27T05:48:53.583Z,101975.81
2022-11-27T05:51:19.933Z,101970.41
2022-11-27T05:53:46.300Z,101974.13
2022-11-27T05:56:15.590Z,101961.53
2022-11-27T05:58:43.256Z,101963.25
2022-11-27T06:01:11.164Z,101955.19
2022-11-27T06:03:39.005Z,101952.47
2022-11-27T06:06:14.822Z,101953.00
2022-11-27T06:08:41.812Z,101955.59
2022-11-27T06:11:10.194Z,101947.53
2022-11-27T06:13:37.697Z,101943.88
2022-11-27T06:16:10.664Z,101946.09
2022-11-27T06:18:37.056Z,101946.03
2022-11-27T06:21:08.343Z,101936.25
2022-11-27T06:23:35.358Z,101934.44
2022-11-27T06:26:13.702Z,101934.50
2022-11-27T06:28:40.937Z,101938.91
2022-11-27T06:31:17.769Z,101942.16
2022-11-27T06:33:44.870Z,101937.59
2022-11-27T06:36:11.340Z,101928.78
2022-11-27T06:38:38.747Z,101924.13
2022-11-27T06:41:11.152Z,101937.31
2022-11-27T06:43:37.862Z,101928.34
2022-11-27T06:46:06.431Z,101922.22
2022-11-27T06:48:33.754Z,101925.66
2022-11-27T06:51:05.380Z,101922.63
2022-11-27T06:53:34.190Z,101923.44
2022-11-27T06:56:03.249Z,101922.38
2022-11-27T06:58:31.172Z,101915.09
2022-11-27T07:00:59.296Z,101916.06
2022-11-27T07:03:26.376Z,101915.19
2022-11-27T07:05:52.727Z,101904.28
2022-11-27T07:08:19.136Z,101894.41
2022-11-27T07:10:45.498Z,101906.84
2022-11-27T07:13:11.843Z,101912.03
2022-11-27T07:15:38.162Z,101902.22
2022-11-27T07:18:04.542Z,101891.47
2022-11-27T07:20:31.983Z,101892.47
2022-11-27T07:22:58.278Z,101881.81
2022-11-27T07:25:24.608Z,101877.47
2022-11-27T07:27:50.919Z,101878.28
2022-11-27T07:30:17.533Z,101868.44
2022-11-27T07:32:43.869Z,101872.59
2022-11-27T07:35:10.314Z,101884.06
2022-11-27T07:37:36.636Z,101872.50
2022-11-27T07:40:03.652Z,101876.06
2022-11-27T07:42:39.071Z,101880.06
2022-11-27T07:45:08.244Z,101885.50
2022-11-27T07:47:34.546Z,101873.06
2022-11-27T07:50:01.099Z,101873.09
2022-11-27T07:52:27.872Z,101872.13
2022-11-27T07:54:54.308Z,101869.53
2022-11-27T07:57:20.669Z,101864.91
2022-11-27T07:59:47.621Z,101862.34
2022-11-27T08:02:14.399Z,101863.16
2022-11-27T08:04:40.917Z,101849.84
2022-11-27T08:07:07.463Z,101847.16
2022-11-27T08:09:33.881Z,101843.50
2022-11-27T08:12:00.220Z,101847.53
2022-11-27T08:14:26.612Z,101853.72
2022-11-27T08:16:53.035Z,101845.56
2022-11-27T08:19:19.455Z,101850.59
2022-11-27T08:21:45.760Z,101832.59
2022-11-27T08:24:12.067Z,101823.81
2022-11-27T08:26:39.253Z,101834.28
2022-11-27T08:29:06.547Z,101828.84
2022-11-27T08:31:34.049Z,101820.06
2022-11-27T08:34:00.501Z,101825.25
2022-11-27T08:36:27.246Z,101823.25
2022-11-27T08:38:54.439Z,101823.97
2022-11-27T08:41:21.130Z,101822.06
2022-11-27T08:43:47.556Z,101812.78
2022-11-27T08:46:14.009Z,101815.28
2022-11-27T08:48:41.716Z,101828.25
2022-11-27T08:51:11.602Z,101819.13
2022-11-27T08:53:38.532Z,101814.59
2022-11-27T08:56:11.366Z,101816.16
2022-11-27T08:58:38.039Z,101815.78
2022-11-27T09:01:09.083Z,101814.78
2022-11-27T09:03:35.529Z,101811.75
2022-11-27T09:06:02.016Z,101811.63
2022-11-27T09:08:28.316Z,101816.03
2022-11-27T09:10:54.628Z,101806.03
2022-11-27T09:13:20.991Z,101805.72
2022-11-27T09:15:47.319Z,101799.94
2022-11-27T09:18:13.617Z,101799.06
2022-11-27T09:20:39.923Z,101796.19
2022-11-27T09:23:10.122Z,101795.81
2022-11-27T09:25:39.539Z,101790.41
2022-11-27T09:28:05.851Z,101792.09
2022-11-27T09:30:32.228Z,101792.69
2022-11-27T09:32:58.523Z,101787.22
2022-11-27T09:35:24.903Z,101785.34
2022-11-27T09:37:51.283Z,101787.88
2022-11-27T09:40:17.818Z,101779.66
2022-11-27T09:42:52.156Z,101776.66
2022-11-27T09:45:18.817Z,101778.19
2022-11-27T09:48:13.352Z,101775.09
2022-11-27T09:50:50.032Z,101775.44
2022-11-27T09:53:33.858Z,101768.28
2022-11-27T09:56:06.815Z,101765.00
2022-11-27T09:58:42.436Z,101768.47
2022-11-27T10:01:13.815Z,101769.91
2022-11-27T10:03:43.166Z,101764.19
2022-11-27T10:06:28.440Z,101765.75
2022-11-27T10:09:15.886Z,101765.31
2022-11-27T10:12:05.434Z,101766.53
2022-11-27T10:14:49.302Z,101758.53
2022-11-27T10:17:27.634Z,101760.28
2022-11-27T10:20:23.430Z,101753.91
2022-11-27T10:23:08.204Z,101764.44
2022-11-27T10:25:40.872Z,101759.97
2022-11-27T10:28:29.807Z,101752.81
2022-11-27T10:31:02.803Z,101738.53
2022-11-27T10:34:04.167Z,101736.88
2022-11-27T10:36:44.726Z,101746.66
2022-11-27T10:39:34.484Z,101734.28
2022-11-27T10:42:10.474Z,101744.75
2022-11-27T10:44:52.530Z,101742.97
2022-11-27T10:47:22.916Z,101740.19
2022-11-27T10:49:49.286Z,101737.63
2022-11-27T10:52:18.431Z,101724.78
2022-11-27T10:54:50.965Z,101722.91
2022-11-27T10:57:47.345Z,101706.00
2022-11-27T11:00:24.967Z,101698.22
2022-11-27T11:03:03.400Z,101702.75
2022-11-27T11:05:41.445Z,101721.19
2022-11-27T11:08:19.929Z,101694.22
2022-11-27T11:10:51.258Z,101697.28
2022-11-27T11:13:21.064Z,101690.75
2022-11-27T11:16:14.506Z,101684.53
2022-11-27T11:18:52.125Z,101686.03
2022-11-27T11:21:32.664Z,101671.66
2022-11-27T11:24:12.684Z,101669.91
2022-11-27T11:26:43.805Z,101666.13
2022-11-27T11:29:31.355Z,101650.66
2022-11-27T11:32:03.337Z,101652.78
2022-11-27T11:34:31.137Z,101648.75
2022-11-27T11:37:01.918Z,101633.59
2022-11-27T11:39:35.007Z,101630.22
2022-11-27T11:42:09.351Z,101627.69
2022-11-27T11:44:38.313Z,101618.72
2022-11-27T11:47:05.046Z,101610.25
2022-11-27T11:49:35.902Z,101601.16
2022-11-27T11:52:26.972Z,101594.22
2022-11-27T11:55:19.084Z,101586.03
2022-11-27T11:58:13.585Z,101595.56
2022-11-27T12:01:18.911Z,101566.41
2022-11-27T12:03:54.604Z,101552.50
2022-11-27T12:06:28.628Z,101543.75
2022-11-27T12:09:04.817Z,101519.81
2022-11-27T12:11:40.537Z,101516.53
2022-11-27T12:14:22.661Z,101509.66
2022-11-27T12:17:26.677Z,101489.41
2022-11-27T12:20:05.255Z,101490.66
2022-11-27T12:22:40.007Z,101482.03
2022-11-27T12:25:33.784Z,101475.50
2022-11-27T12:28:18.704Z,101491.06
2022-11-27T12:30:59.486Z,101532.47
2022-11-27T12:33:28.620Z,101536.84
2022-11-27T12:36:23.139Z,101522.56
2022-11-27T12:39:09.341Z,101513.94
2022-11-27T12:42:00.579Z,101502.22
2022-11-27T12:44:31.569Z,101504.81
2022-11-27T12:47:02.512Z,101514.09
2022-11-27T12:49:34.592Z,101515.50
2022-11-27T12:52:09.930Z,101520.06
2022-11-27T12:55:02.984Z,101518.25
2022-11-27T12:57:41.799Z,101521.75
2022-11-27T13:00:15.968Z,101511.78
2022-11-27T13:03:00.879Z,101499.28
2022-11-27T13:05:32.271Z,101505.56
2022-11-27T13:08:04.378Z,101488.84
2022-11-27T13:10:38.120Z,101479.03
2022-11-27T13:13:05.993Z,101473.59
2022-11-27T13:15:43.441Z,101466.94
2022-11-27T13:18:18.588Z,101465.50
2022-11-27T13:20:51.994Z,101457.19
2022-11-27T13:23:20.268Z,101461.59
2022-11-27T13:25:51.889Z,101455.69
2022-11-27T13:28:40.952Z,101450.72
2022-11-27T13:31:09.212Z,101442.66
2022-11-27T13:33:41.165Z,101435.06
2022-11-27T13:36:19.412Z,101437.53
2022-11-27T13:38:51.877Z,101434.81
2022-11-27T13:41:31.722Z,101441.63
2022-11-27T13:43:58.531Z,101437.91
2022-11-27T13:46:27.734Z,101438.16
2022-11-27T13:49:00.442Z,101430.06
2022-11-27T13:51:32.387Z,101423.78
2022-11-27T13:54:15.617Z,101426.44
2022-11-27T13:56:42.526Z,101420.34
2022-11-27T13:59:17.655Z,101424.72
2022-11-27T14:01:55.654Z,101428.88
2022-11-27T14:04:22.010Z,101431.47
2022-11-27T14:06:58.277Z,101434.94
2022-11-27T14:09:51.305Z,101427.69
2022-11-27T14:12:32.843Z,101425.03
2022-11-27T14:15:03.710Z,101409.78
2022-11-27T14:17:44.636Z,101418.78
2022-11-27T14:20:11.288Z,101418.91
2022-11-27T14:23:07.281Z,101425.34
2022-11-27T14:25:33.682Z,101420.06
2022-11-27T14:28:10.795Z,101416.47
2022-11-27T14:30:46.240Z,101417.25
2022-11-27T14:33:22.205Z,101406.72
2022-11-27T14:35:57.563Z,101405.06
2022-11-27T14:38:24.779Z,101410.53
2022-11-27T14:40:55.601Z,101412.22
2022-11-27T14:43:28.559Z,101402.50
2022-11-27T14:45:58.923Z,101407.06
2022-11-27T14:48:41.340Z,101431.19
2022-11-27T14:51:13.919Z,101418.00
2022-11-27T14:53:40.931Z,101405.75
2022-11-27T14:56:07.503Z,101413.06
2022-11-27T14:58:34.027Z,101408.75
2022-11-27T15:01:05.974Z,101414.22
2022-11-27T15:03:33.380Z,101415.13
2022-11-27T15:06:02.835Z,101405.63
2022-11-27T15:08:34.415Z,101397.59
2022-11-27T15:11:02.747Z,101398.25
2022-11-27T15:13:31.997Z,101393.16
2022-11-27T15:16:15.574Z,101382.56
2022-11-27T15:18:48.208Z,101383.84
2022-11-27T15:21:20.515Z,101369.97
2022-11-27T15:23:49.626Z,101343.47
2022-11-27T15:26:33.187Z,101331.16
2022-11-27T15:28:59.644Z,101339.31
2022-11-27T15:31:37.614Z,101337.03
2022-11-27T15:34:20.361Z,101332.81
2022-11-27T15:37:03.620Z,101322.22
2022-11-27T15:39:38.132Z,101319.84
2022-11-27T15:42:09.380Z,101320.03
2022-11-27T15:44:36.282Z,101313.84
2022-11-27T15:47:04.907Z,101309.69
2022-11-27T15:49:31.382Z,101328.75
2022-11-27T15:51:58.141Z,101316.34
2022-11-27T15:54:25.152Z,101320.75
2022-11-27T15:56:52.008Z,101321.75
2022-11-27T15:59:20.563Z,101314.50
2022-11-27T16:01:47.603Z,101316.25
2022-11-27T16:04:14.012Z,101314.44
2022-11-27T16:06:40.368Z,101312.75
2022-11-27T16:09:06.779Z,101305.34
2022-11-27T16:11:34.047Z,101301.56
2022-11-27T16:14:00.450Z,101294.34
2022-11-27T16:16:26.962Z,101285.41
2022-11-27T16:18:57.438Z,101280.16
2022-11-27T16:21:29.237Z,101271.09
2022-11-27T16:23:58.788Z,101249.53
2022-11-27T16:26:26.304Z,101269.22
2022-11-27T16:28:52.999Z,101258.47
2022-11-27T16:31:20.120Z,101264.31
2022-11-27T16:33:46.856Z,101257.59
2022-11-27T16:36:16.058Z,101236.25
2022-11-27T16:38:43.412Z,101240.47
2022-11-27T16:41:15.223Z,101256.25
2022-11-27T16:43:45.162Z,101266.84
2022-11-27T16:46:13.921Z,101263.88
2022-11-27T16:48:43.187Z,101261.41
2022-11-27T16:51:14.206Z,101258.91
2022-11-27T16:53:42.316Z,101260.56
2022-11-27T16:56:10.542Z,101256.97
2022-11-27T16:58:39.840Z,101254.44
2022-11-27T17:01:15.401Z,101243.41
2022-11-27T17:03:41.989Z,101241.69
2022-11-27T17:06:10.682Z,101238.91
2022-11-27T17:08:37.518Z,101240.06
2022-11-27T17:11:15.860Z,101229.63
2022-11-27T17:13:42.169Z,101224.03
2022-11-27T17:16:08.829Z,101230.16
2022-11-27T17:18:39.954Z,101219.50
2022-11-27T17:21:14.057Z,101209.13
2022-11-27T17:23:43.001Z,101202.47
2022-11-27T17:26:11.791Z,101197.38
2022-11-27T17:28:38.407Z,101195.38
2022-11-27T17:31:13.193Z,101192.94
2022-11-27T17:33:39.698Z,101194.56
2022-11-27T17:36:06.592Z,101194.66
2022-11-27T17:38:33.688Z,101187.75
2022-11-27T17:41:11.960Z,101180.78
2022-11-27T17:43:39.296Z,101181.56
2022-11-27T17:46:11.171Z,101188.00
2022-11-27T17:48:38.490Z,101176.56
2022-11-27T17:51:06.428Z,101172.41
2022-11-27T17:53:33.132Z,101167.84
2022-11-27T17:56:07.212Z,101173.00
2022-11-27T17:58:33.974Z,101175.63
2022-11-27T18:01:02.447Z,101165.59
2022-11-27T18:03:29.619Z,101161.72
2022-11-27T18:05:56.751Z,101145.78
2022-11-27T18:08:23.748Z,101137.66
2022-11-27T18:10:50.109Z,101139.38
2022-11-27T18:13:17.815Z,101134.03
2022-11-27T18:15:44.217Z,101144.00
2022-11-27T18:18:10.625Z,101140.56
2022-11-27T18:20:37.018Z,101142.84
2022-11-27T18:23:03.343Z,101134.25
2022-11-27T18:25:29.803Z,101125.94
2022-11-27T18:27:57.840Z,101121.47
2022-11-27T18:30:24.882Z,101110.97
2022-11-27T18:32:51.205Z,101107.22
2022-11-27T18:35:17.700Z,101100.78
2022-11-27T18:37:44.033Z,101096.31
2022-11-27T18:40:10.711Z,101095.47
2022-11-27T18:42:37.045Z,101084.34
2022-11-27T18:45:03.742Z,101081.38
2022-11-27T18:47:30.143Z,101073.03
2022-11-27T18:49:59.536Z,101069.34
2022-11-27T18:52:25.843Z,101061.94
2022-11-27T18:54:52.584Z,101068.25
2022-11-27T18:57:19.484Z,101067.22
2022-11-27T18:59:45.914Z,101064.47
2022-11-27T19:02:13.104Z,101076.16
2022-11-27T19:04:39.922Z,101080.59
2022-11-27T19:07:06.637Z,101077.88
2022-11-27T19:09:33.563Z,101090.59
2022-11-27T19:12:00.118Z,101090.81
2022-11-27T19:14:26.552Z,101080.16
2022-11-27T19:16:53.066Z,101081.13
2022-11-27T19:22:07.826Z,101076.16
2022-11-27T19:24:34.484Z,101058.09
2022-11-27T19:27:00.823Z,101059.97
2022-11-27T19:29:27.130Z,101048.09
2022-11-27T19:31:55.997Z,101059.59
2022-11-27T19:34:22.697Z,101052.28
2022-11-27T19:36:49.019Z,101056.63
2022-11-27T19:39:15.713Z,101045.97
2022-11-27T19:41:44.748Z,101031.53
2022-11-27T19:44:12.577Z,101040.47
2022-11-27T19:46:40.814Z,101038.75
2022-11-27T19:49:12.093Z,101041.34
2022-11-27T19:51:40.326Z,101055.59
2022-11-27T19:54:15.549Z,101041.56
2022-11-27T19:56:42.607Z,101041.41
2022-11-27T19:59:10.881Z,101053.47
2022-11-27T20:01:40.161Z,101051.03
2022-11-27T20:04:07.820Z,101043.03
2022-11-27T20:06:34.290Z,101040.47
2022-11-27T20:09:03.981Z,101033.34
2022-11-27T20:11:35.036Z,101027.94
2022-11-27T20:14:04.775Z,101026.38
2022-11-27T20:16:33.339Z,101019.19
2022-11-27T20:19:02.681Z,101020.28
2022-11-27T20:21:29.228Z,101009.06
2022-11-27T20:23:57.135Z,101015.53
2022-11-27T20:26:25.961Z,101015.41
2022-11-27T20:28:53.934Z,101008.63
2022-11-27T20:31:24.135Z,101006.81
2022-11-27T20:33:56.339Z,101005.72
2022-11-27T20:36:24.880Z,100999.31
2022-11-27T20:38:52.544Z,101002.81
2022-11-27T20:41:20.363Z,100986.75
2022-11-27T20:43:50.468Z,100975.16
2022-11-27T20:46:17.977Z,100975.59
2022-11-27T20:48:49.224Z,100973.78
2022-11-27T20:51:21.263Z,100983.34
2022-11-27T20:53:49.112Z,100983.09
2022-11-27T20:56:18.044Z,100982.44
2022-11-27T20:58:46.127Z,100978.63
2022-11-27T21:01:29.417Z,100970.41
2022-11-27T21:03:57.367Z,100965.41
2022-11-27T21:06:27.616Z,100961.47
2022-11-27T21:08:54.772Z,100955.25
2022-11-27T21:11:27.172Z,100959.31
2022-11-27T21:13:59.662Z,100955.66
2022-11-27T21:16:31.663Z,100953.66
2022-11-27T21:19:01.940Z,100936.81
2022-11-27T21:21:29.283Z,100934.06
2022-11-27T21:23:55.848Z,100933.38
2022-11-27T21:26:23.400Z,100931.13
2022-11-27T21:28:50.230Z,100926.56
2022-11-27T21:31:20.274Z,100934.25
2022-11-27T21:33:54.923Z,100937.69
2022-11-27T21:36:25.570Z,100935.28
2022-11-27T21:38:52.750Z,100931.06
2022-11-27T21:41:19.945Z,100920.81
2022-11-27T21:43:48.596Z,100918.16
2022-11-27T21:46:18.867Z,100902.84
2022-11-27T21:48:47.341Z,100890.91
2022-11-27T21:51:15.054Z,100882.19
2022-11-27T21:53:42.638Z,100877.13
2022-11-27T21:56:11.029Z,100893.22
2022-11-27T21:58:37.425Z,100883.41
2022-11-27T22:01:06.206Z,100888.81
2022-11-27T22:03:32.951Z,100877.31
2022-11-27T22:06:01.733Z,100879.13
2022-11-27T22:08:29.464Z,100881.94
2022-11-27T22:10:55.977Z,100900.44
2022-11-27T22:13:23.299Z,100889.78
2022-11-27T22:15:49.868Z,100896.06
2022-11-27T22:18:17.104Z,100889.09
2022-11-27T22:20:43.514Z,100895.19
2022-11-27T22:23:09.889Z,100900.28
2022-11-27T22:25:36.695Z,100894.78
2022-11-27T22:28:03.187Z,100885.75
2022-11-27T22:30:29.706Z,100890.19
2022-11-27T22:32:56.469Z,100887.97
2022-11-27T22:35:23.761Z,100883.59
2022-11-27T22:37:53.341Z,100882.13
2022-11-27T22:40:20.098Z,100885.09
2022-11-27T22:42:46.927Z,100885.56
2022-11-27T22:45:13.360Z,100889.13
2022-11-27T22:47:40.008Z,100873.72
2022-11-27T22:50:07.292Z,100868.31
2022-11-27T22:52:33.635Z,100870.38
2022-11-27T22:55:00.030Z,100863.91
2022-11-27T22:57:26.737Z,100858.91
2022-11-27T22:59:53.143Z,100866.16
2022-11-27T23:02:19.555Z,100852.50
2022-11-27T23:04:46.172Z,100860.47
2022-11-27T23:07:12.720Z,100854.63
2022-11-27T23:09:39.292Z,100849.19
2022-11-27T23:12:05.723Z,100855.22
2022-11-27T23:14:32.107Z,100845.69
2022-11-27T23:16:58.740Z,100841.63
2022-11-27T23:19:25.221Z,100828.69
2022-11-27T23:21:51.702Z,100835.09
2022-11-27T23:24:18.179Z,100844.72
2022-11-27T23:26:45.619Z,100846.00
2022-11-27T23:29:12.694Z,100825.56
2022-11-27T23:31:39.296Z,100820.34
2022-11-27T23:34:09.003Z,100830.34
2022-11-27T23:36:36.331Z,100829.25
2022-11-27T23:39:07.829Z,100814.72
2022-11-27T23:41:35.025Z,100816.44
2022-11-27T23:44:02.025Z,100811.88
2022-11-27T23:46:29.497Z,100811.72
2022-11-27T23:48:57.421Z,100807.66
2022-11-27T23:51:26.576Z,100805.47
2022-11-27T23:53:53.731Z,100808.63
2022-11-27T23:56:23.811Z,100808.38
2022-11-27T23:58:50.432Z,100798.75
